sensor_id;sensor_type;location;lat;lon;timestamp;P1;durP1;ratioP1;P2;durP2;ratioP2
21392;SDS011;10857;52.228;21.026;2023-11-22T00:01:04;15.40;;;8.30;;
21392;SDS011;10857;52.228;21.026;2023-11-22T00:03:35;15.00;;;8.23;;
21392;SDS011;10857;52.228;21.026;2023-11-22T00:06:02;16.10;;;8.70;;
21392;SDS011;10857;52.228;21.026;2023-11-22T00:08:29;15.87;;;8.03;;
21392;SDS011;10857;52.228;21.026;2023-11-22T00:10:56;14.73;;;7.57;;
21392;SDS011;10857;52.228;21.026;2023-11-22T00:13:24;16.47;;;8.10;;
21392;SDS011;10857;52.228;21.026;2023-11-22T00:15:51;14.47;;;7.53;;
21392;SDS011;10857;52.228;21.026;2023-11-22T00:18:18;14.27;;;7.53;;
21392;SDS011;10857;52.228;21.026;2023-11-22T00:20:45;17.37;;;7.60;;
21392;SDS011;10857;52.228;21.026;2023-11-22T00:23:15;15.73;;;7.77;;
21392;SDS011;10857;52.228;21.026;2023-11-22T00:25:42;15.17;;;7.60;;
21392;SDS011;10857;52.228;21.026;2023-11-22T00:28:10;16.00;;;7.97;;
21392;SDS011;10857;52.228;21.026;2023-11-22T00:30:38;14.70;;;7.63;;
21392;SDS011;10857;52.228;21.026;2023-11-22T00:33:05;17.50;;;7.47;;
21392;SDS011;10857;52.228;21.026;2023-11-22T00:35:33;14.03;;;6.63;;
21392;SDS011;10857;52.228;21.026;2023-11-22T00:38:00;16.40;;;7.60;;
21392;SDS011;10857;52.228;21.026;2023-11-22T00:40:27;14.57;;;7.67;;
21392;SDS011;10857;52.228;21.026;2023-11-22T00:42:55;15.77;;;7.30;;
21392;SDS011;10857;52.228;21.026;2023-11-22T00:45:22;13.70;;;7.20;;
21392;SDS011;10857;52.228;21.026;2023-11-22T00:47:49;14.63;;;7.13;;
21392;SDS011;10857;52.228;21.026;2023-11-22T00:50:17;14.47;;;7.50;;
21392;SDS011;10857;52.228;21.026;2023-11-22T00:52:47;15.17;;;7.27;;
21392;SDS011;10857;52.228;21.026;2023-11-22T00:55:15;12.40;;;6.67;;
21392;SDS011;10857;52.228;21.026;2023-11-22T00:57:42;14.30;;;7.13;;
21392;SDS011;10857;52.228;21.026;2023-11-22T01:00:10;14.67;;;7.37;;
21392;SDS011;10857;52.228;21.026;2023-11-22T01:02:38;16.10;;;6.93;;
21392;SDS011;10857;52.228;21.026;2023-11-22T01:05:07;14.40;;;6.93;;
21392;SDS011;10857;52.228;21.026;2023-11-22T01:07:38;13.30;;;6.63;;
21392;SDS011;10857;52.228;21.026;2023-11-22T01:10:07;13.40;;;7.00;;
21392;SDS011;10857;52.228;21.026;2023-11-22T01:12:34;12.93;;;7.10;;
21392;SDS011;10857;52.228;21.026;2023-11-22T01:15:01;12.27;;;7.03;;
21392;SDS011;10857;52.228;21.026;2023-11-22T01:17:29;12.93;;;6.50;;
21392;SDS011;10857;52.228;21.026;2023-11-22T01:20:00;16.60;;;6.77;;
21392;SDS011;10857;52.228;21.026;2023-11-22T01:22:30;13.60;;;6.97;;
21392;SDS011;10857;52.228;21.026;2023-11-22T01:24:58;12.23;;;6.57;;
21392;SDS011;10857;52.228;21.026;2023-11-22T01:27:25;13.33;;;7.10;;
21392;SDS011;10857;52.228;21.026;2023-11-22T01:29:52;13.30;;;6.63;;
21392;SDS011;10857;52.228;21.026;2023-11-22T01:32:20;12.50;;;6.60;;
21392;SDS011;10857;52.228;21.026;2023-11-22T01:34:48;17.27;;;6.20;;
21392;SDS011;10857;52.228;21.026;2023-11-22T01:37:15;12.10;;;6.00;;
21392;SDS011;10857;52.228;21.026;2023-11-22T01:39:42;11.70;;;5.67;;
21392;SDS011;10857;52.228;21.026;2023-11-22T01:42:09;14.73;;;6.10;;
21392;SDS011;10857;52.228;21.026;2023-11-22T01:44:36;11.47;;;6.23;;
21392;SDS011;10857;52.228;21.026;2023-11-22T01:47:04;11.00;;;5.40;;
21392;SDS011;10857;52.228;21.026;2023-11-22T01:49:31;10.50;;;5.60;;
21392;SDS011;10857;52.228;21.026;2023-11-22T01:51:59;9.90;;;5.20;;
21392;SDS011;10857;52.228;21.026;2023-11-22T01:54:28;10.00;;;5.70;;
21392;SDS011;10857;52.228;21.026;2023-11-22T01:56:56;11.23;;;5.40;;
21392;SDS011;10857;52.228;21.026;2023-11-22T01:59:25;9.77;;;5.07;;
21392;SDS011;10857;52.228;21.026;2023-11-22T02:01:53;10.73;;;5.30;;
21392;SDS011;10857;52.228;21.026;2023-11-22T02:04:21;9.17;;;5.20;;
21392;SDS011;10857;52.228;21.026;2023-11-22T02:06:48;11.83;;;5.10;;
21392;SDS011;10857;52.228;21.026;2023-11-22T02:09:18;9.67;;;5.30;;
21392;SDS011;10857;52.228;21.026;2023-11-22T02:11:46;10.73;;;5.63;;
21392;SDS011;10857;52.228;21.026;2023-11-22T02:14:15;9.17;;;4.83;;
21392;SDS011;10857;52.228;21.026;2023-11-22T02:16:43;8.23;;;4.57;;
21392;SDS011;10857;52.228;21.026;2023-11-22T02:19:17;7.77;;;4.93;;
21392;SDS011;10857;52.228;21.026;2023-11-22T02:21:44;11.83;;;5.00;;
21392;SDS011;10857;52.228;21.026;2023-11-22T02:24:12;8.70;;;5.23;;
21392;SDS011;10857;52.228;21.026;2023-11-22T02:26:43;10.80;;;5.23;;
21392;SDS011;10857;52.228;21.026;2023-11-22T02:29:11;9.50;;;5.37;;
21392;SDS011;10857;52.228;21.026;2023-11-22T02:31:41;11.73;;;5.70;;
21392;SDS011;10857;52.228;21.026;2023-11-22T02:34:09;10.93;;;5.27;;
21392;SDS011;10857;52.228;21.026;2023-11-22T02:36:36;11.40;;;5.70;;
21392;SDS011;10857;52.228;21.026;2023-11-22T02:39:04;9.73;;;5.30;;
21392;SDS011;10857;52.228;21.026;2023-11-22T02:41:31;11.30;;;5.43;;
21392;SDS011;10857;52.228;21.026;2023-11-22T02:43:58;10.17;;;4.90;;
21392;SDS011;10857;52.228;21.026;2023-11-22T02:46:26;8.67;;;5.17;;
21392;SDS011;10857;52.228;21.026;2023-11-22T02:48:54;9.47;;;5.20;;
21392;SDS011;10857;52.228;21.026;2023-11-22T02:51:21;9.27;;;5.50;;
21392;SDS011;10857;52.228;21.026;2023-11-22T02:53:48;10.60;;;5.17;;
21392;SDS011;10857;52.228;21.026;2023-11-22T02:56:16;9.13;;;4.97;;
21392;SDS011;10857;52.228;21.026;2023-11-22T02:58:43;12.33;;;5.17;;
21392;SDS011;10857;52.228;21.026;2023-11-22T03:01:11;8.97;;;4.83;;
21392;SDS011;10857;52.228;21.026;2023-11-22T03:03:38;9.03;;;4.73;;
21392;SDS011;10857;52.228;21.026;2023-11-22T03:06:06;10.80;;;4.80;;
21392;SDS011;10857;52.228;21.026;2023-11-22T03:08:33;10.60;;;5.27;;
21392;SDS011;10857;52.228;21.026;2023-11-22T03:11:01;10.57;;;5.47;;
21392;SDS011;10857;52.228;21.026;2023-11-22T03:13:29;9.07;;;5.43;;
21392;SDS011;10857;52.228;21.026;2023-11-22T03:15:56;10.37;;;5.53;;
21392;SDS011;10857;52.228;21.026;2023-11-22T03:18:23;12.07;;;5.40;;
21392;SDS011;10857;52.228;21.026;2023-11-22T03:20:50;9.03;;;5.13;;
21392;SDS011;10857;52.228;21.026;2023-11-22T03:23:21;11.00;;;5.23;;
21392;SDS011;10857;52.228;21.026;2023-11-22T03:25:48;8.57;;;4.73;;
21392;SDS011;10857;52.228;21.026;2023-11-22T03:28:15;11.10;;;5.03;;
21392;SDS011;10857;52.228;21.026;2023-11-22T03:30:42;9.20;;;4.90;;
21392;SDS011;10857;52.228;21.026;2023-11-22T03:33:09;9.80;;;5.27;;
21392;SDS011;10857;52.228;21.026;2023-11-22T03:35:37;9.20;;;5.27;;
21392;SDS011;10857;52.228;21.026;2023-11-22T03:38:05;10.37;;;5.10;;
21392;SDS011;10857;52.228;21.026;2023-11-22T03:40:32;9.00;;;4.93;;
21392;SDS011;10857;52.228;21.026;2023-11-22T03:42:59;8.73;;;4.77;;
21392;SDS011;10857;52.228;21.026;2023-11-22T03:45:26;10.30;;;5.27;;
21392;SDS011;10857;52.228;21.026;2023-11-22T03:47:53;9.30;;;4.70;;
21392;SDS011;10857;52.228;21.026;2023-11-22T03:50:20;12.30;;;5.47;;
21392;SDS011;10857;52.228;21.026;2023-11-22T03:52:48;12.17;;;5.60;;
21392;SDS011;10857;52.228;21.026;2023-11-22T03:55:15;10.23;;;5.50;;
21392;SDS011;10857;52.228;21.026;2023-11-22T03:57:42;12.03;;;5.20;;
21392;SDS011;10857;52.228;21.026;2023-11-22T04:00:09;11.23;;;5.30;;
21392;SDS011;10857;52.228;21.026;2023-11-22T04:02:38;11.53;;;5.20;;
21392;SDS011;10857;52.228;21.026;2023-11-22T04:05:06;9.67;;;5.23;;
21392;SDS011;10857;52.228;21.026;2023-11-22T04:07:33;13.13;;;5.50;;
21392;SDS011;10857;52.228;21.026;2023-11-22T04:10:01;12.20;;;5.67;;
21392;SDS011;10857;52.228;21.026;2023-11-22T04:12:28;12.03;;;4.80;;
21392;SDS011;10857;52.228;21.026;2023-11-22T04:14:55;9.57;;;5.33;;
21392;SDS011;10857;52.228;21.026;2023-11-22T04:17:22;9.83;;;4.90;;
21392;SDS011;10857;52.228;21.026;2023-11-22T04:19:49;10.10;;;5.73;;
21392;SDS011;10857;52.228;21.026;2023-11-22T04:22:17;11.70;;;5.83;;
21392;SDS011;10857;52.228;21.026;2023-11-22T04:24:43;14.13;;;5.10;;
21392;SDS011;10857;52.228;21.026;2023-11-22T04:27:12;11.73;;;5.43;;
21392;SDS011;10857;52.228;21.026;2023-11-22T04:29:39;8.90;;;5.00;;
21392;SDS011;10857;52.228;21.026;2023-11-22T04:32:06;11.80;;;5.00;;
21392;SDS011;10857;52.228;21.026;2023-11-22T04:34:34;8.67;;;4.80;;
21392;SDS011;10857;52.228;21.026;2023-11-22T04:37:01;11.53;;;5.20;;
21392;SDS011;10857;52.228;21.026;2023-11-22T04:39:28;11.93;;;5.67;;
21392;SDS011;10857;52.228;21.026;2023-11-22T04:41:55;10.80;;;5.37;;
21392;SDS011;10857;52.228;21.026;2023-11-22T04:44:22;9.57;;;4.90;;
21392;SDS011;10857;52.228;21.026;2023-11-22T04:46:49;9.67;;;5.40;;
21392;SDS011;10857;52.228;21.026;2023-11-22T04:49:17;11.77;;;5.70;;
21392;SDS011;10857;52.228;21.026;2023-11-22T04:51:45;8.63;;;5.00;;
21392;SDS011;10857;52.228;21.026;2023-11-22T04:54:12;10.67;;;5.33;;
21392;SDS011;10857;52.228;21.026;2023-11-22T04:56:39;12.40;;;5.70;;
21392;SDS011;10857;52.228;21.026;2023-11-22T04:59:06;11.90;;;5.30;;
21392;SDS011;10857;52.228;21.026;2023-11-22T05:01:33;10.97;;;5.40;;
21392;SDS011;10857;52.228;21.026;2023-11-22T05:04:01;13.07;;;5.03;;
21392;SDS011;10857;52.228;21.026;2023-11-22T05:06:28;9.30;;;4.93;;
21392;SDS011;10857;52.228;21.026;2023-11-22T05:08:55;11.97;;;5.70;;
21392;SDS011;10857;52.228;21.026;2023-11-22T05:11:23;11.80;;;5.53;;
21392;SDS011;10857;52.228;21.026;2023-11-22T05:13:50;11.50;;;5.77;;
21392;SDS011;10857;52.228;21.026;2023-11-22T05:16:17;11.20;;;5.37;;
21392;SDS011;10857;52.228;21.026;2023-11-22T05:18:45;11.20;;;5.57;;
21392;SDS011;10857;52.228;21.026;2023-11-22T05:21:12;14.03;;;5.97;;
21392;SDS011;10857;52.228;21.026;2023-11-22T05:23:39;11.67;;;5.70;;
21392;SDS011;10857;52.228;21.026;2023-11-22T05:26:09;13.23;;;5.90;;
21392;SDS011;10857;52.228;21.026;2023-11-22T05:28:36;10.37;;;5.50;;
21392;SDS011;10857;52.228;21.026;2023-11-22T05:31:03;14.00;;;5.97;;
21392;SDS011;10857;52.228;21.026;2023-11-22T05:33:30;13.53;;;5.93;;
21392;SDS011;10857;52.228;21.026;2023-11-22T05:35:59;11.43;;;5.60;;
21392;SDS011;10857;52.228;21.026;2023-11-22T05:38:26;12.93;;;5.90;;
21392;SDS011;10857;52.228;21.026;2023-11-22T05:40:53;12.23;;;6.43;;
21392;SDS011;10857;52.228;21.026;2023-11-22T05:43:21;10.17;;;5.67;;
21392;SDS011;10857;52.228;21.026;2023-11-22T05:45:52;10.33;;;5.50;;
21392;SDS011;10857;52.228;21.026;2023-11-22T05:48:20;11.23;;;5.43;;
21392;SDS011;10857;52.228;21.026;2023-11-22T05:50:47;10.87;;;5.10;;
21392;SDS011;10857;52.228;21.026;2023-11-22T05:53:15;12.80;;;5.67;;
21392;SDS011;10857;52.228;21.026;2023-11-22T05:55:49;11.30;;;5.67;;
21392;SDS011;10857;52.228;21.026;2023-11-22T05:58:16;12.07;;;5.50;;
21392;SDS011;10857;52.228;21.026;2023-11-22T06:00:47;10.67;;;5.77;;
21392;SDS011;10857;52.228;21.026;2023-11-22T06:03:14;9.23;;;5.33;;
21392;SDS011;10857;52.228;21.026;2023-11-22T06:05:41;13.10;;;5.30;;
21392;SDS011;10857;52.228;21.026;2023-11-22T06:08:08;11.57;;;5.70;;
21392;SDS011;10857;52.228;21.026;2023-11-22T06:10:36;11.33;;;5.77;;
21392;SDS011;10857;52.228;21.026;2023-11-22T06:13:08;13.53;;;6.07;;
21392;SDS011;10857;52.228;21.026;2023-11-22T06:15:36;12.77;;;5.73;;
21392;SDS011;10857;52.228;21.026;2023-11-22T06:18:03;13.00;;;6.17;;
21392;SDS011;10857;52.228;21.026;2023-11-22T06:20:31;13.13;;;6.23;;
21392;SDS011;10857;52.228;21.026;2023-11-22T06:22:58;11.50;;;6.13;;
21392;SDS011;10857;52.228;21.026;2023-11-22T06:25:25;12.90;;;6.40;;
21392;SDS011;10857;52.228;21.026;2023-11-22T06:27:53;10.77;;;5.77;;
21392;SDS011;10857;52.228;21.026;2023-11-22T06:30:20;12.43;;;6.07;;
21392;SDS011;10857;52.228;21.026;2023-11-22T06:32:47;12.13;;;6.27;;
21392;SDS011;10857;52.228;21.026;2023-11-22T06:35:15;13.77;;;6.33;;
21392;SDS011;10857;52.228;21.026;2023-11-22T06:37:44;14.20;;;6.87;;
21392;SDS011;10857;52.228;21.026;2023-11-22T06:40:11;13.37;;;6.40;;
21392;SDS011;10857;52.228;21.026;2023-11-22T06:42:42;18.00;;;6.77;;
21392;SDS011;10857;52.228;21.026;2023-11-22T06:45:09;14.17;;;6.33;;
21392;SDS011;10857;52.228;21.026;2023-11-22T06:47:36;14.10;;;7.03;;
21392;SDS011;10857;52.228;21.026;2023-11-22T06:50:04;12.80;;;6.60;;
21392;SDS011;10857;52.228;21.026;2023-11-22T06:52:39;15.80;;;8.80;;
21392;SDS011;10857;52.228;21.026;2023-11-22T06:55:07;17.73;;;8.07;;
21392;SDS011;10857;52.228;21.026;2023-11-22T06:57:35;14.47;;;7.43;;
21392;SDS011;10857;52.228;21.026;2023-11-22T07:00:03;15.10;;;7.70;;
21392;SDS011;10857;52.228;21.026;2023-11-22T07:02:32;13.93;;;7.23;;
21392;SDS011;10857;52.228;21.026;2023-11-22T07:04:59;16.03;;;8.30;;
21392;SDS011;10857;52.228;21.026;2023-11-22T07:07:26;19.33;;;8.50;;
21392;SDS011;10857;52.228;21.026;2023-11-22T07:09:53;17.00;;;7.83;;
21392;SDS011;10857;52.228;21.026;2023-11-22T07:12:25;17.87;;;7.83;;
21392;SDS011;10857;52.228;21.026;2023-11-22T07:14:53;17.27;;;9.20;;
21392;SDS011;10857;52.228;21.026;2023-11-22T07:17:20;18.27;;;8.70;;
21392;SDS011;10857;52.228;21.026;2023-11-22T07:19:49;24.17;;;9.13;;
21392;SDS011;10857;52.228;21.026;2023-11-22T07:22:18;20.03;;;9.67;;
21392;SDS011;10857;52.228;21.026;2023-11-22T07:24:46;21.40;;;8.97;;
21392;SDS011;10857;52.228;21.026;2023-11-22T07:27:17;20.87;;;9.20;;
21392;SDS011;10857;52.228;21.026;2023-11-22T07:29:45;19.40;;;9.13;;
21392;SDS011;10857;52.228;21.026;2023-11-22T07:32:13;21.20;;;9.90;;
21392;SDS011;10857;52.228;21.026;2023-11-22T07:34:40;19.67;;;8.97;;
21392;SDS011;10857;52.228;21.026;2023-11-22T07:37:07;17.75;;;10.13;;
21392;SDS011;10857;52.228;21.026;2023-11-22T07:39:35;21.00;;;9.30;;
21392;SDS011;10857;52.228;21.026;2023-11-22T07:42:03;20.90;;;9.57;;
21392;SDS011;10857;52.228;21.026;2023-11-22T07:44:30;16.52;;;9.73;;
21392;SDS011;10857;52.228;21.026;2023-11-22T07:46:59;18.20;;;9.00;;
21392;SDS011;10857;52.228;21.026;2023-11-22T07:49:26;16.87;;;8.63;;
21392;SDS011;10857;52.228;21.026;2023-11-22T07:51:54;17.57;;;8.40;;
21392;SDS011;10857;52.228;21.026;2023-11-22T07:54:22;19.67;;;9.20;;
21392;SDS011;10857;52.228;21.026;2023-11-22T07:56:49;12.97;;;7.33;;
21392;SDS011;10857;52.228;21.026;2023-11-22T07:59:19;17.13;;;8.00;;
21392;SDS011;10857;52.228;21.026;2023-11-22T08:01:47;16.00;;;8.07;;
21392;SDS011;10857;52.228;21.026;2023-11-22T08:04:17;18.67;;;8.30;;
21392;SDS011;10857;52.228;21.026;2023-11-22T08:06:44;13.83;;;7.47;;
21392;SDS011;10857;52.228;21.026;2023-11-22T08:09:12;14.90;;;7.87;;
21392;SDS011;10857;52.228;21.026;2023-11-22T08:11:40;15.70;;;8.03;;
21392;SDS011;10857;52.228;21.026;2023-11-22T08:14:07;14.37;;;7.40;;
21392;SDS011;10857;52.228;21.026;2023-11-22T08:16:35;14.60;;;7.50;;
21392;SDS011;10857;52.228;21.026;2023-11-22T08:19:05;13.83;;;7.50;;
21392;SDS011;10857;52.228;21.026;2023-11-22T08:21:32;14.80;;;7.50;;
21392;SDS011;10857;52.228;21.026;2023-11-22T08:23:59;13.63;;;7.00;;
21392;SDS011;10857;52.228;21.026;2023-11-22T08:26:26;19.87;;;7.80;;
21392;SDS011;10857;52.228;21.026;2023-11-22T08:28:53;13.17;;;7.23;;
21392;SDS011;10857;52.228;21.026;2023-11-22T08:31:21;16.63;;;7.57;;
21392;SDS011;10857;52.228;21.026;2023-11-22T08:33:48;13.73;;;7.67;;
21392;SDS011;10857;52.228;21.026;2023-11-22T08:36:15;18.47;;;7.53;;
21392;SDS011;10857;52.228;21.026;2023-11-22T08:38:43;14.60;;;7.43;;
21392;SDS011;10857;52.228;21.026;2023-11-22T08:41:11;13.87;;;7.30;;
21392;SDS011;10857;52.228;21.026;2023-11-22T08:43:41;18.23;;;8.33;;
21392;SDS011;10857;52.228;21.026;2023-11-22T08:46:08;18.17;;;8.47;;
21392;SDS011;10857;52.228;21.026;2023-11-22T08:48:40;14.73;;;7.73;;
21392;SDS011;10857;52.228;21.026;2023-11-22T08:51:09;18.33;;;8.07;;
21392;SDS011;10857;52.228;21.026;2023-11-22T08:53:37;14.80;;;7.87;;
21392;SDS011;10857;52.228;21.026;2023-11-22T08:56:04;14.43;;;8.00;;
21392;SDS011;10857;52.228;21.026;2023-11-22T08:58:32;14.53;;;7.67;;
21392;SDS011;10857;52.228;21.026;2023-11-22T09:01:00;14.73;;;7.53;;
21392;SDS011;10857;52.228;21.026;2023-11-22T09:03:30;16.87;;;7.87;;
21392;SDS011;10857;52.228;21.026;2023-11-22T09:05:59;12.10;;;7.13;;
21392;SDS011;10857;52.228;21.026;2023-11-22T09:08:26;19.67;;;7.80;;
21392;SDS011;10857;52.228;21.026;2023-11-22T09:10:57;15.73;;;8.50;;
21392;SDS011;10857;52.228;21.026;2023-11-22T09:13:24;20.50;;;9.40;;
21392;SDS011;10857;52.228;21.026;2023-11-22T09:15:51;18.50;;;9.60;;
21392;SDS011;10857;52.228;21.026;2023-11-22T09:18:19;19.37;;;9.67;;
21392;SDS011;10857;52.228;21.026;2023-11-22T09:20:46;16.03;;;8.50;;
21392;SDS011;10857;52.228;21.026;2023-11-22T09:23:15;20.77;;;9.60;;
21392;SDS011;10857;52.228;21.026;2023-11-22T09:25:43;20.13;;;9.57;;
21392;SDS011;10857;52.228;21.026;2023-11-22T09:28:10;17.73;;;9.10;;
21392;SDS011;10857;52.228;21.026;2023-11-22T09:30:37;16.67;;;8.77;;
21392;SDS011;10857;52.228;21.026;2023-11-22T09:33:12;19.43;;;9.47;;
21392;SDS011;10857;52.228;21.026;2023-11-22T09:35:42;19.97;;;10.10;;
21392;SDS011;10857;52.228;21.026;2023-11-22T09:38:14;18.60;;;9.77;;
21392;SDS011;10857;52.228;21.026;2023-11-22T09:43:12;19.03;;;10.70;;
21392;SDS011;10857;52.228;21.026;2023-11-22T09:45:46;21.00;;;11.07;;
21392;SDS011;10857;52.228;21.026;2023-11-22T09:48:21;23.67;;;11.07;;
21392;SDS011;10857;52.228;21.026;2023-11-22T09:53:47;20.77;;;10.93;;
21392;SDS011;10857;52.228;21.026;2023-11-22T09:56:23;20.00;;;9.73;;
21392;SDS011;10857;52.228;21.026;2023-11-22T09:58:51;17.93;;;8.77;;
21392;SDS011;10857;52.228;21.026;2023-11-22T10:01:23;13.00;;;7.40;;
21392;SDS011;10857;52.228;21.026;2023-11-22T10:03:50;15.33;;;7.80;;
21392;SDS011;10857;52.228;21.026;2023-11-22T10:06:19;14.57;;;7.27;;
21392;SDS011;10857;52.228;21.026;2023-11-22T10:08:46;13.83;;;6.37;;
21392;SDS011;10857;52.228;21.026;2023-11-22T10:11:17;14.70;;;6.87;;
21392;SDS011;10857;52.228;21.026;2023-11-22T10:13:51;11.97;;;6.27;;
21392;SDS011;10857;52.228;21.026;2023-11-22T10:16:18;10.07;;;6.10;;
21392;SDS011;10857;52.228;21.026;2023-11-22T10:18:48;15.00;;;6.30;;
21392;SDS011;10857;52.228;21.026;2023-11-22T10:21:20;11.87;;;6.50;;
21392;SDS011;10857;52.228;21.026;2023-11-22T10:23:55;10.97;;;6.23;;
21392;SDS011;10857;52.228;21.026;2023-11-22T10:26:24;11.40;;;6.73;;
21392;SDS011;10857;52.228;21.026;2023-11-22T10:28:51;10.43;;;5.70;;
21392;SDS011;10857;52.228;21.026;2023-11-22T10:31:20;10.97;;;6.10;;
21392;SDS011;10857;52.228;21.026;2023-11-22T10:33:51;15.17;;;5.80;;
21392;SDS011;10857;52.228;21.026;2023-11-22T10:36:20;8.90;;;5.77;;
21392;SDS011;10857;52.228;21.026;2023-11-22T10:38:49;9.70;;;6.10;;
21392;SDS011;10857;52.228;21.026;2023-11-22T10:41:20;8.90;;;6.20;;
21392;SDS011;10857;52.228;21.026;2023-11-22T10:43:51;13.20;;;7.43;;
21392;SDS011;10857;52.228;21.026;2023-11-22T10:46:20;13.70;;;7.63;;
21392;SDS011;10857;52.228;21.026;2023-11-22T10:48:51;13.87;;;7.40;;
21392;SDS011;10857;52.228;21.026;2023-11-22T10:51:18;13.07;;;7.27;;
21392;SDS011;10857;52.228;21.026;2023-11-22T10:53:48;12.57;;;7.60;;
21392;SDS011;10857;52.228;21.026;2023-11-22T10:56:17;11.93;;;7.43;;
21392;SDS011;10857;52.228;21.026;2023-11-22T10:58:55;22.50;;;8.10;;
21392;SDS011;10857;52.228;21.026;2023-11-22T11:01:24;15.33;;;8.37;;
21392;SDS011;10857;52.228;21.026;2023-11-22T11:06:29;13.18;;;8.55;;
21392;SDS011;10857;52.228;21.026;2023-11-22T11:09:01;12.70;;;7.90;;
21392;SDS011;10857;52.228;21.026;2023-11-22T11:11:34;13.50;;;7.80;;
21392;SDS011;10857;52.228;21.026;2023-11-22T11:14:02;12.77;;;7.27;;
21392;SDS011;10857;52.228;21.026;2023-11-22T11:16:32;14.67;;;7.40;;
21392;SDS011;10857;52.228;21.026;2023-11-22T11:19:15;14.23;;;7.33;;
21392;SDS011;10857;52.228;21.026;2023-11-22T11:21:47;13.97;;;7.23;;
21392;SDS011;10857;52.228;21.026;2023-11-22T11:24:15;11.93;;;7.13;;
21392;SDS011;10857;52.228;21.026;2023-11-22T11:26:47;13.03;;;6.90;;
21392;SDS011;10857;52.228;21.026;2023-11-22T11:29:37;12.20;;;7.20;;
21392;SDS011;10857;52.228;21.026;2023-11-22T11:32:10;10.07;;;6.50;;
21392;SDS011;10857;52.228;21.026;2023-11-22T11:34:49;13.20;;;7.20;;
21392;SDS011;10857;52.228;21.026;2023-11-22T11:37:19;13.00;;;7.50;;
21392;SDS011;10857;52.228;21.026;2023-11-22T11:39:47;21.30;;;7.93;;
21392;SDS011;10857;52.228;21.026;2023-11-22T11:42:15;16.90;;;7.03;;
21392;SDS011;10857;52.228;21.026;2023-11-22T11:47:28;13.40;;;7.70;;
21392;SDS011;10857;52.228;21.026;2023-11-22T11:49:55;14.83;;;7.07;;
21392;SDS011;10857;52.228;21.026;2023-11-22T11:52:24;15.93;;;7.20;;
21392;SDS011;10857;52.228;21.026;2023-11-22T11:54:52;14.00;;;6.90;;
21392;SDS011;10857;52.228;21.026;2023-11-22T11:57:20;15.23;;;7.90;;
21392;SDS011;10857;52.228;21.026;2023-11-22T11:59:48;14.63;;;7.53;;
21392;SDS011;10857;52.228;21.026;2023-11-22T12:02:16;16.10;;;7.43;;
21392;SDS011;10857;52.228;21.026;2023-11-22T12:04:43;14.30;;;7.17;;
21392;SDS011;10857;52.228;21.026;2023-11-22T12:07:11;14.00;;;7.63;;
21392;SDS011;10857;52.228;21.026;2023-11-22T12:09:39;15.00;;;7.77;;
21392;SDS011;10857;52.228;21.026;2023-11-22T12:12:07;11.17;;;7.43;;
21392;SDS011;10857;52.228;21.026;2023-11-22T12:14:34;11.53;;;7.57;;
21392;SDS011;10857;52.228;21.026;2023-11-22T12:17:03;12.73;;;7.63;;
21392;SDS011;10857;52.228;21.026;2023-11-22T12:19:30;12.63;;;7.87;;
21392;SDS011;10857;52.228;21.026;2023-11-22T12:21:58;20.13;;;8.20;;
21392;SDS011;10857;52.228;21.026;2023-11-22T12:24:25;15.67;;;8.03;;
21392;SDS011;10857;52.228;21.026;2023-11-22T12:26:53;20.37;;;8.50;;
21392;SDS011;10857;52.228;21.026;2023-11-22T12:29:23;20.90;;;8.37;;
21392;SDS011;10857;52.228;21.026;2023-11-22T12:31:50;16.57;;;8.30;;
21392;SDS011;10857;52.228;21.026;2023-11-22T12:34:22;12.80;;;7.93;;
21392;SDS011;10857;52.228;21.026;2023-11-22T12:36:51;15.47;;;8.17;;
21392;SDS011;10857;52.228;21.026;2023-11-22T12:39:20;12.63;;;8.03;;
21392;SDS011;10857;52.228;21.026;2023-11-22T12:41:48;15.73;;;8.23;;
21392;SDS011;10857;52.228;21.026;2023-11-22T12:44:31;17.50;;;8.73;;
21392;SDS011;10857;52.228;21.026;2023-11-22T12:47:13;16.80;;;7.93;;
21392;SDS011;10857;52.228;21.026;2023-11-22T12:49:45;18.33;;;9.43;;
21392;SDS011;10857;52.228;21.026;2023-11-22T12:52:13;18.50;;;8.83;;
21392;SDS011;10857;52.228;21.026;2023-11-22T12:54:40;22.43;;;9.00;;
21392;SDS011;10857;52.228;21.026;2023-11-22T12:57:10;16.27;;;8.50;;
21392;SDS011;10857;52.228;21.026;2023-11-22T12:59:39;18.70;;;8.70;;
21392;SDS011;10857;52.228;21.026;2023-11-22T13:02:07;16.37;;;8.43;;
21392;SDS011;10857;52.228;21.026;2023-11-22T13:04:36;14.40;;;7.90;;
21392;SDS011;10857;52.228;21.026;2023-11-22T13:07:03;16.60;;;8.10;;
21392;SDS011;10857;52.228;21.026;2023-11-22T13:09:31;14.57;;;9.00;;
21392;SDS011;10857;52.228;21.026;2023-11-22T13:12:00;19.03;;;9.50;;
21392;SDS011;10857;52.228;21.026;2023-11-22T13:14:27;15.40;;;8.60;;
21392;SDS011;10857;52.228;21.026;2023-11-22T13:17:04;17.10;;;8.90;;
21392;SDS011;10857;52.228;21.026;2023-11-22T13:19:35;18.90;;;9.67;;
21392;SDS011;10857;52.228;21.026;2023-11-22T13:22:03;23.93;;;10.50;;
21392;SDS011;10857;52.228;21.026;2023-11-22T13:24:32;19.33;;;10.60;;
21392;SDS011;10857;52.228;21.026;2023-11-22T13:26:59;24.40;;;11.57;;
21392;SDS011;10857;52.228;21.026;2023-11-22T13:29:26;22.23;;;11.50;;
21392;SDS011;10857;52.228;21.026;2023-11-22T13:31:54;24.17;;;11.53;;
21392;SDS011;10857;52.228;21.026;2023-11-22T13:34:21;23.87;;;10.40;;
21392;SDS011;10857;52.228;21.026;2023-11-22T13:36:48;20.43;;;10.93;;
21392;SDS011;10857;52.228;21.026;2023-11-22T13:39:15;21.13;;;10.43;;
21392;SDS011;10857;52.228;21.026;2023-11-22T13:41:43;22.77;;;10.20;;
21392;SDS011;10857;52.228;21.026;2023-11-22T13:44:10;21.87;;;10.90;;
21392;SDS011;10857;52.228;21.026;2023-11-22T13:46:37;20.70;;;11.30;;
21392;SDS011;10857;52.228;21.026;2023-11-22T13:49:04;24.80;;;10.43;;
21392;SDS011;10857;52.228;21.026;2023-11-22T13:51:32;24.63;;;10.77;;
21392;SDS011;10857;52.228;21.026;2023-11-22T13:54:01;21.80;;;10.70;;
21392;SDS011;10857;52.228;21.026;2023-11-22T13:56:28;22.10;;;10.23;;
21392;SDS011;10857;52.228;21.026;2023-11-22T13:58:55;20.50;;;9.47;;
21392;SDS011;10857;52.228;21.026;2023-11-22T14:01:24;23.33;;;11.33;;
21392;SDS011;10857;52.228;21.026;2023-11-22T14:03:53;23.07;;;10.67;;
21392;SDS011;10857;52.228;21.026;2023-11-22T14:06:21;20.23;;;10.53;;
21392;SDS011;10857;52.228;21.026;2023-11-22T14:08:50;26.27;;;11.03;;
21392;SDS011;10857;52.228;21.026;2023-11-22T14:11:17;19.87;;;9.87;;
21392;SDS011;10857;52.228;21.026;2023-11-22T14:13:44;20.07;;;9.77;;
21392;SDS011;10857;52.228;21.026;2023-11-22T14:16:11;18.60;;;9.67;;
21392;SDS011;10857;52.228;21.026;2023-11-22T14:18:40;22.00;;;10.63;;
21392;SDS011;10857;52.228;21.026;2023-11-22T14:21:08;19.73;;;10.03;;
21392;SDS011;10857;52.228;21.026;2023-11-22T14:23:36;21.50;;;10.30;;
21392;SDS011;10857;52.228;21.026;2023-11-22T14:26:03;19.30;;;10.07;;
21392;SDS011;10857;52.228;21.026;2023-11-22T14:28:32;18.83;;;10.50;;
21392;SDS011;10857;52.228;21.026;2023-11-22T14:31:00;18.57;;;9.67;;
21392;SDS011;10857;52.228;21.026;2023-11-22T14:33:28;20.13;;;9.57;;
21392;SDS011;10857;52.228;21.026;2023-11-22T14:35:58;17.63;;;8.63;;
21392;SDS011;10857;52.228;21.026;2023-11-22T14:38:26;22.17;;;10.43;;